sensor_id;sensor_type;location;lat;lon;timestamp;pressure;altitude;pressure_sealevel;temperature;humidity
5814;BME280;2933;52.302;8.134;2022-08-19T00:01:41;100443.09;;;17.72;90.04
5814;BME280;2933;52.302;8.134;2022-08-19T00:06:44;100478.25;;;17.82;90.07
5814;BME280;2933;52.302;8.134;2022-08-19T00:11:47;100448.22;;;17.64;89.70
5814;BME280;2933;52.302;8.134;2022-08-19T00:16:50;100478.78;;;17.86;89.42
5814;BME280;2933;52.302;8.134;2022-08-19T00:21:54;100478.81;;;17.66;89.77
5814;BME280;2933;52.302;8.134;2022-08-19T00:26:58;100484.94;;;17.57;90.42
5814;BME280;2933;52.302;8.134;2022-08-19T00:32:02;100467.28;;;17.38;91.76
5814;BME280;2933;52.302;8.134;2022-08-19T00:37:04;100489.38;;;17.37;91.51
5814;BME280;2933;52.302;8.134;2022-08-19T00:42:07;100495.34;;;17.29;91.59
5814;BME280;2933;52.302;8.134;2022-08-19T00:47:08;100492.00;;;17.17;92.83
5814;BME280;2933;52.302;8.134;2022-08-19T00:52:14;100489.22;;;17.19;92.37
5814;BME280;2933;52.302;8.134;2022-08-19T00:57:24;100486.28;;;17.02;92.45
5814;BME280;2933;52.302;8.134;2022-08-19T01:02:28;100472.94;;;17.04;92.31
5814;BME280;2933;52.302;8.134;2022-08-19T01:07:30;100455.44;;;17.03;91.65
5814;BME280;2933;52.302;8.134;2022-08-19T01:12:33;100451.19;;;16.80;92.43
5814;BME280;2933;52.302;8.134;2022-08-19T01:17:38;100424.28;;;16.46;93.11
5814;BME280;2933;52.302;8.134;2022-08-19T01:22:44;100445.78;;;16.82;92.65
5814;BME280;2933;52.302;8.134;2022-08-19T01:27:48;100454.09;;;16.77;92.06
5814;BME280;2933;52.302;8.134;2022-08-19T01:32:52;100442.31;;;16.82;92.08
5814;BME280;2933;52.302;8.134;2022-08-19T01:37:57;100441.97;;;16.65;92.18
5814;BME280;2933;52.302;8.134;2022-08-19T01:43:00;100442.34;;;16.51;93.06
5814;BME280;2933;52.302;8.134;2022-08-19T01:48:03;100444.00;;;16.52;93.03
5814;BME280;2933;52.302;8.134;2022-08-19T01:53:07;100438.84;;;16.40;94.35
5814;BME280;2933;52.302;8.134;2022-08-19T01:58:13;100430.78;;;16.42;94.02
5814;BME280;2933;52.302;8.134;2022-08-19T02:03:16;100433.03;;;16.46;93.77
5814;BME280;2933;52.302;8.134;2022-08-19T02:08:19;100436.69;;;16.24;93.67
5814;BME280;2933;52.302;8.134;2022-08-19T02:13:21;100421.53;;;16.17;94.46
5814;BME280;2933;52.302;8.134;2022-08-19T02:18:23;100398.69;;;16.27;92.50
5814;BME280;2933;52.302;8.134;2022-08-19T02:23:28;100409.19;;;16.17;92.76
5814;BME280;2933;52.302;8.134;2022-08-19T02:28:29;100401.84;;;16.21;93.77
5814;BME280;2933;52.302;8.134;2022-08-19T02:33:32;100393.09;;;16.51;91.74
5814;BME280;2933;52.302;8.134;2022-08-19T02:38:35;100388.09;;;16.17;92.81
5814;BME280;2933;52.302;8.134;2022-08-19T02:43:37;100397.38;;;16.11;94.47
5814;BME280;2933;52.302;8.134;2022-08-19T02:48:40;100395.88;;;15.88;95.32
5814;BME280;2933;52.302;8.134;2022-08-19T02:53:43;100393.84;;;15.80;95.71
5814;BME280;2933;52.302;8.134;2022-08-19T02:58:45;100403.31;;;15.82;94.92
5814;BME280;2933;52.302;8.134;2022-08-19T03:03:48;100403.94;;;15.96;96.04
5814;BME280;2933;52.302;8.134;2022-08-19T03:08:51;100398.09;;;15.92;94.41
5814;BME280;2933;52.302;8.134;2022-08-19T03:13:53;100388.94;;;15.87;94.99
5814;BME280;2933;52.302;8.134;2022-08-19T03:18:56;100386.59;;;15.93;94.53
5814;BME280;2933;52.302;8.134;2022-08-19T03:24:04;100382.28;;;15.71;95.31
5814;BME280;2933;52.302;8.134;2022-08-19T03:29:06;100391.03;;;15.72;95.86
5814;BME280;2933;52.302;8.134;2022-08-19T03:34:12;100394.13;;;15.77;95.10
5814;BME280;2933;52.302;8.134;2022-08-19T03:39:16;100400.06;;;15.37;96.94
5814;BME280;2933;52.302;8.134;2022-08-19T03:44:20;100397.97;;;15.30;96.29
5814;BME280;2933;52.302;8.134;2022-08-19T03:49:23;100432.78;;;15.76;94.31
5814;BME280;2933;52.302;8.134;2022-08-19T03:54:27;100438.03;;;15.55;95.09
5814;BME280;2933;52.302;8.134;2022-08-19T03:59:35;100426.72;;;15.43;95.05
5814;BME280;2933;52.302;8.134;2022-08-19T04:04:39;100423.97;;;15.45;95.55
5814;BME280;2933;52.302;8.134;2022-08-19T04:09:42;100425.06;;;15.42;95.23
5814;BME280;2933;52.302;8.134;2022-08-19T04:14:44;100428.19;;;15.36;96.01
5814;BME280;2933;52.302;8.134;2022-08-19T04:19:46;100432.00;;;15.43;95.60
5814;BME280;2933;52.302;8.134;2022-08-19T04:24:49;100422.19;;;15.45;94.65
5814;BME280;2933;52.302;8.134;2022-08-19T04:29:50;100434.34;;;15.58;93.66
5814;BME280;2933;52.302;8.134;2022-08-19T04:34:55;100442.59;;;15.53;95.00
5814;BME280;2933;52.302;8.134;2022-08-19T04:39:58;100437.06;;;15.56;94.77
5814;BME280;2933;52.302;8.134;2022-08-19T04:45:17;100444.97;;;15.56;94.58
5814;BME280;2933;52.302;8.134;2022-08-19T04:50:18;100449.97;;;15.92;92.59
5814;BME280;2933;52.302;8.134;2022-08-19T04:55:21;100448.53;;;15.66;93.18
5814;BME280;2933;52.302;8.134;2022-08-19T05:00:25;100449.50;;;15.65;94.81
5814;BME280;2933;52.302;8.134;2022-08-19T05:05:27;100436.41;;;15.64;95.60
5814;BME280;2933;52.302;8.134;2022-08-19T05:10:30;100437.00;;;15.67;95.30
5814;BME280;2933;52.302;8.134;2022-08-19T05:15:31;100432.38;;;15.81;96.03
5814;BME280;2933;52.302;8.134;2022-08-19T05:20:33;100437.09;;;15.98;95.81
5814;BME280;2933;52.302;8.134;2022-08-19T05:25:54;100450.13;;;16.21;96.12
5814;BME280;2933;52.302;8.134;2022-08-19T05:30:55;100443.09;;;16.31;96.66
5814;BME280;2933;52.302;8.134;2022-08-19T05:35:57;100449.44;;;16.50;96.06
5814;BME280;2933;52.302;8.134;2022-08-19T05:41:00;100432.69;;;16.30;96.69
5814;BME280;2933;52.302;8.134;2022-08-19T05:46:01;100430.06;;;16.30;96.05
5814;BME280;2933;52.302;8.134;2022-08-19T05:51:03;100445.06;;;16.39;96.15
5814;BME280;2933;52.302;8.134;2022-08-19T05:56:10;100456.72;;;16.37;96.08
5814;BME280;2933;52.302;8.134;2022-08-19T06:01:14;100452.63;;;16.54;95.44
5814;BME280;2933;52.302;8.134;2022-08-19T06:06:16;100450.63;;;16.87;94.10
5814;BME280;2933;52.302;8.134;2022-08-19T06:11:22;100446.28;;;17.17;93.23
5814;BME280;2933;52.302;8.134;2022-08-19T06:16:24;100416.00;;;17.21;92.47
5814;BME280;2933;52.302;8.134;2022-08-19T06:21:28;100433.09;;;17.46;92.64
5814;BME280;2933;52.302;8.134;2022-08-19T06:26:33;100409.56;;;17.63;92.57
5814;BME280;2933;52.302;8.134;2022-08-19T06:31:35;100413.84;;;17.93;90.51
5814;BME280;2933;52.302;8.134;2022-08-19T06:36:39;100415.22;;;18.07;89.76
5814;BME280;2933;52.302;8.134;2022-08-19T06:41:45;100416.13;;;18.25;89.45
5814;BME280;2933;52.302;8.134;2022-08-19T06:46:47;100423.47;;;18.32;89.17
5814;BME280;2933;52.302;8.134;2022-08-19T06:51:50;100426.31;;;18.48;88.52
5814;BME280;2933;52.302;8.134;2022-08-19T06:56:53;100426.06;;;18.69;87.71
5814;BME280;2933;52.302;8.134;2022-08-19T07:01:56;100440.31;;;18.86;85.65
5814;BME280;2933;52.302;8.134;2022-08-19T07:06:59;100416.47;;;18.96;85.13
5814;BME280;2933;52.302;8.134;2022-08-19T07:12:04;100436.59;;;19.25;84.43
5814;BME280;2933;52.302;8.134;2022-08-19T07:17:10;100422.69;;;19.41;81.88
5814;BME280;2933;52.302;8.134;2022-08-19T07:22:12;100448.59;;;19.74;80.67
5814;BME280;2933;52.302;8.134;2022-08-19T07:27:15;100456.84;;;19.89;81.32
5814;BME280;2933;52.302;8.134;2022-08-19T07:32:17;100455.25;;;19.96;79.88
5814;BME280;2933;52.302;8.134;2022-08-19T07:37:18;100465.47;;;20.17;79.68
5814;BME280;2933;52.302;8.134;2022-08-19T07:42:21;100465.03;;;20.22;79.10
5814;BME280;2933;52.302;8.134;2022-08-19T07:47:23;100463.34;;;20.55;78.76
5814;BME280;2933;52.302;8.134;2022-08-19T07:52:25;100478.66;;;20.70;77.22
5814;BME280;2933;52.302;8.134;2022-08-19T07:57:27;100455.16;;;20.75;76.26
5814;BME280;2933;52.302;8.134;2022-08-19T08:02:29;100485.06;;;20.85;76.04
5814;BME280;2933;52.302;8.134;2022-08-19T08:07:31;100472.09;;;20.82;75.59
5814;BME280;2933;52.302;8.134;2022-08-19T08:12:52;100480.63;;;21.02;73.45
5814;BME280;2933;52.302;8.134;2022-08-19T08:17:55;100483.97;;;21.12;74.42
5814;BME280;2933;52.302;8.134;2022-08-19T08:22:57;100463.34;;;20.98;71.25
5814;BME280;2933;52.302;8.134;2022-08-19T08:28:19;100505.63;;;21.42;70.21
5814;BME280;2933;52.302;8.134;2022-08-19T08:33:22;100503.81;;;21.59;69.05
5814;BME280;2933;52.302;8.134;2022-08-19T08:38:24;100516.75;;;21.54;67.10
5814;BME280;2933;52.302;8.134;2022-08-19T08:43:29;100518.25;;;21.57;67.61
5814;BME280;2933;52.302;8.134;2022-08-19T08:48:37;100514.75;;;21.48;68.70
5814;BME280;2933;52.302;8.134;2022-08-19T08:53:40;100514.25;;;21.53;66.66
5814;BME280;2933;52.302;8.134;2022-08-19T08:58:49;100512.97;;;21.65;66.88
5814;BME280;2933;52.302;8.134;2022-08-19T09:03:52;100510.47;;;21.80;65.09
5814;BME280;2933;52.302;8.134;2022-08-19T09:08:59;100509.63;;;21.88;65.04
5814;BME280;2933;52.302;8.134;2022-08-19T09:14:09;100519.59;;;22.02;62.98
5814;BME280;2933;52.302;8.134;2022-08-19T09:19:14;100511.41;;;22.28;62.13
5814;BME280;2933;52.302;8.134;2022-08-19T09:24:17;100521.66;;;22.56;59.92
5814;BME280;2933;52.302;8.134;2022-08-19T09:29:20;100491.69;;;22.71;58.02
5814;BME280;2933;52.302;8.134;2022-08-19T09:34:22;100492.22;;;22.98;58.18
5814;BME280;2933;52.302;8.134;2022-08-19T09:39:23;100513.84;;;23.34;56.32
5814;BME280;2933;52.302;8.134;2022-08-19T09:44:26;100508.91;;;23.23;55.36
5814;BME280;2933;52.302;8.134;2022-08-19T09:49:28;100500.75;;;23.48;55.87
5814;BME280;2933;52.302;8.134;2022-08-19T09:54:29;100497.28;;;23.85;53.50
5814;BME280;2933;52.302;8.134;2022-08-19T09:59:32;100502.38;;;23.72;51.58
5814;BME280;2933;52.302;8.134;2022-08-19T10:04:34;100492.38;;;23.74;52.81
5814;BME280;2933;52.302;8.134;2022-08-19T10:09:53;100501.22;;;24.28;53.50
5814;BME280;2933;52.302;8.134;2022-08-19T10:14:56;100488.34;;;24.31;52.07
5814;BME280;2933;52.302;8.134;2022-08-19T10:19:58;100493.06;;;24.44;50.67
5814;BME280;2933;52.302;8.134;2022-08-19T10:24:59;100496.13;;;25.08;52.06
5814;BME280;2933;52.302;8.134;2022-08-19T10:30:03;100500.66;;;24.92;47.07
5814;BME280;2933;52.302;8.134;2022-08-19T10:35:05;100494.56;;;24.98;48.27
5814;BME280;2933;52.302;8.134;2022-08-19T10:40:09;100481.50;;;25.25;48.73
5814;BME280;2933;52.302;8.134;2022-08-19T10:45:13;100483.84;;;25.57;48.06
5814;BME280;2933;52.302;8.134;2022-08-19T10:50:15;100488.94;;;25.73;47.82
5814;BME280;2933;52.302;8.134;2022-08-19T10:55:39;100494.50;;;26.00;46.35
5814;BME280;2933;52.302;8.134;2022-08-19T11:01:00;100488.19;;;26.43;46.54
5814;BME280;2933;52.302;8.134;2022-08-19T11:06:04;100485.38;;;25.94;44.95
5814;BME280;2933;52.302;8.134;2022-08-19T11:11:07;100479.78;;;25.39;48.95
5814;BME280;2933;52.302;8.134;2022-08-19T11:16:13;100475.50;;;25.67;47.83
5814;BME280;2933;52.302;8.134;2022-08-19T11:21:17;100475.88;;;25.63;44.95
5814;BME280;2933;52.302;8.134;2022-08-19T11:26:20;100457.94;;;25.86;46.08
5814;BME280;2933;52.302;8.134;2022-08-19T11:31:26;100458.59;;;25.88;45.62
5814;BME280;2933;52.302;8.134;2022-08-19T11:36:28;100455.47;;;25.84;45.82
5814;BME280;2933;52.302;8.134;2022-08-19T11:41:44;100421.16;;;25.66;46.97
5814;BME280;2933;52.302;8.134;2022-08-19T11:46:54;100448.53;;;25.40;44.90
5814;BME280;2933;52.302;8.134;2022-08-19T11:52:04;100426.38;;;25.46;44.15
5814;BME280;2933;52.302;8.134;2022-08-19T11:57:07;100444.19;;;25.39;44.23
5814;BME280;2933;52.302;8.134;2022-08-19T12:02:10;100431.59;;;25.32;44.12
5814;BME280;2933;52.302;8.134;2022-08-19T12:07:11;100437.63;;;25.63;43.26
5814;BME280;2933;52.302;8.134;2022-08-19T12:12:13;100435.16;;;26.25;42.31
5814;BME280;2933;52.302;8.134;2022-08-19T12:17:16;100438.94;;;26.37;42.24
5814;BME280;2933;52.302;8.134;2022-08-19T12:22:17;100432.41;;;26.53;41.64
5814;BME280;2933;52.302;8.134;2022-08-19T12:27:20;100426.47;;;26.71;41.64
5814;BME280;2933;52.302;8.134;2022-08-19T12:32:23;100418.50;;;26.85;41.07
5814;BME280;2933;52.302;8.134;2022-08-19T12:37:26;100415.25;;;27.36;41.65
5814;BME280;2933;52.302;8.134;2022-08-19T12:42:28;100401.22;;;27.28;40.52
5814;BME280;2933;52.302;8.134;2022-08-19T12:47:31;100401.44;;;27.26;39.29
5814;BME280;2933;52.302;8.134;2022-08-19T12:52:34;100399.19;;;27.50;40.10
5814;BME280;2933;52.302;8.134;2022-08-19T12:57:37;100381.22;;;27.57;40.67
5814;BME280;2933;52.302;8.134;2022-08-19T13:02:42;100395.25;;;27.32;40.15
5814;BME280;2933;52.302;8.134;2022-08-19T13:07:44;100405.72;;;26.80;41.83
5814;BME280;2933;52.302;8.134;2022-08-19T13:12:47;100408.84;;;27.04;42.35
5814;BME280;2933;52.302;8.134;2022-08-19T13:17:54;100416.47;;;26.87;42.57
5814;BME280;2933;52.302;8.134;2022-08-19T13:22:56;100402.22;;;26.80;42.21
5814;BME280;2933;52.302;8.134;2022-08-19T13:27:59;100400.41;;;27.20;41.54
5814;BME280;2933;52.302;8.134;2022-08-19T13:33:02;100393.97;;;26.74;41.79
5814;BME280;2933;52.302;8.134;2022-08-19T13:38:16;100394.78;;;26.26;42.61
5814;BME280;2933;52.302;8.134;2022-08-19T13:43:19;100368.94;;;26.05;43.99
5814;BME280;2933;52.302;8.134;2022-08-19T13:48:24;100380.75;;;26.24;41.51
5814;BME280;2933;52.302;8.134;2022-08-19T13:53:27;100375.81;;;26.76;39.70
5814;BME280;2933;52.302;8.134;2022-08-19T13:58:28;100355.03;;;27.19;39.64
5814;BME280;2933;52.302;8.134;2022-08-19T14:03:34;100362.66;;;27.15;39.32
5814;BME280;2933;52.302;8.134;2022-08-19T14:08:35;100340.41;;;27.08;40.56
5814;BME280;2933;52.302;8.134;2022-08-19T14:13:40;100333.38;;;27.00;40.93
5814;BME280;2933;52.302;8.134;2022-08-19T14:18:43;100362.47;;;27.03;41.16
5814;BME280;2933;52.302;8.134;2022-08-19T14:23:45;100360.41;;;27.46;40.23
5814;BME280;2933;52.302;8.134;2022-08-19T14:28:47;100334.41;;;27.46;38.45
5814;BME280;2933;52.302;8.134;2022-08-19T14:33:51;100341.41;;;27.34;36.91
5814;BME280;2933;52.302;8.134;2022-08-19T14:38:52;100365.34;;;27.69;38.10
5814;BME280;2933;52.302;8.134;2022-08-19T14:43:54;100356.88;;;27.65;37.31
5814;BME280;2933;52.302;8.134;2022-08-19T14:48:57;100351.31;;;27.40;38.48
5814;BME280;2933;52.302;8.134;2022-08-19T14:53:59;100370.72;;;27.35;39.45
5814;BME280;2933;52.302;8.134;2022-08-19T14:59:00;100363.72;;;27.48;39.26
5814;BME280;2933;52.302;8.134;2022-08-19T15:04:04;100375.88;;;27.57;38.81
5814;BME280;2933;52.302;8.134;2022-08-19T15:09:06;100336.25;;;26.79;39.79
5814;BME280;2933;52.302;8.134;2022-08-19T15:14:07;100380.16;;;26.98;41.15
5814;BME280;2933;52.302;8.134;2022-08-19T15:19:10;100366.69;;;26.57;41.54
5814;BME280;2933;52.302;8.134;2022-08-19T15:24:12;100372.25;;;26.56;41.92
5814;BME280;2933;52.302;8.134;2022-08-19T15:29:13;100404.63;;;26.68;41.06
5814;BME280;2933;52.302;8.134;2022-08-19T15:34:17;100378.28;;;26.16;42.19
5814;BME280;2933;52.302;8.134;2022-08-19T15:39:19;100389.47;;;25.98;42.57
5814;BME280;2933;52.302;8.134;2022-08-19T15:44:21;100377.94;;;25.97;42.39
5814;BME280;2933;52.302;8.134;2022-08-19T15:49:24;100404.22;;;26.16;42.73
5814;BME280;2933;52.302;8.134;2022-08-19T15:54:26;100377.75;;;25.99;42.42
5814;BME280;2933;52.302;8.134;2022-08-19T15:59:27;100389.81;;;26.17;42.61
5814;BME280;2933;52.302;8.134;2022-08-19T16:05:05;100414.75;;;26.24;44.04
5814;BME280;2933;52.302;8.134;2022-08-19T16:10:25;100413.56;;;25.98;44.69
5814;BME280;2933;52.302;8.134;2022-08-19T16:15:29;100416.28;;;26.05;45.19
5814;BME280;2933;52.302;8.134;2022-08-19T16:20:32;100427.50;;;25.87;45.04
5814;BME280;2933;52.302;8.134;2022-08-19T16:25:34;100409.28;;;25.69;45.58
5814;BME280;2933;52.302;8.134;2022-08-19T16:30:37;100394.72;;;25.49;46.43
5814;BME280;2933;52.302;8.134;2022-08-19T16:35:40;100409.22;;;25.62;46.06
5814;BME280;2933;52.302;8.134;2022-08-19T16:40:42;100405.41;;;25.49;46.44
5814;BME280;2933;52.302;8.134;2022-08-19T16:45:44;100431.72;;;25.46;47.03
5814;BME280;2933;52.302;8.134;2022-08-19T16:50:47;100415.19;;;25.14;47.75
5814;BME280;2933;52.302;8.134;2022-08-19T16:55:48;100443.81;;;25.20;48.15
5814;BME280;2933;52.302;8.134;2022-08-19T17:00:52;100422.44;;;25.20;47.90
5814;BME280;2933;52.302;8.134;2022-08-19T17:05:57;100395.88;;;24.97;48.23
5814;BME280;2933;52.302;8.134;2022-08-19T17:11:02;100417.50;;;25.24;48.20
5814;BME280;2933;52.302;8.134;2022-08-19T17:16:04;100415.66;;;25.24;47.86
5814;BME280;2933;52.302;8.134;2022-08-19T17:21:08;100432.16;;;25.28;48.72
5814;BME280;2933;52.302;8.134;2022-08-19T17:26:13;100428.84;;;25.26;49.09
5814;BME280;2933;52.302;8.134;2022-08-19T17:31:15;100426.03;;;25.34;49.37
5814;BME280;2933;52.302;8.134;2022-08-19T17:36:18;100418.22;;;25.32;49.50
5814;BME280;2933;52.302;8.134;2022-08-19T17:41:22;100426.00;;;25.49;49.28
5814;BME280;2933;52.302;8.134;2022-08-19T17:46:24;100430.66;;;25.40;49.04
5814;BME280;2933;52.302;8.134;2022-08-19T17:51:40;100420.44;;;25.29;49.30
5814;BME280;2933;52.302;8.134;2022-08-19T17:56:42;100421.31;;;25.36;49.15
5814;BME280;2933;52.302;8.134;2022-08-19T18:01:45;100390.28;;;25.13;50.71
5814;BME280;2933;52.302;8.134;2022-08-19T18:06:49;100407.31;;;25.12;50.20
5814;BME280;2933;52.302;8.134;2022-08-19T18:11:53;100398.28;;;25.13;50.85
5814;BME280;2933;52.302;8.134;2022-08-19T18:16:55;100372.47;;;24.77;50.95
5814;BME280;2933;52.302;8.134;2022-08-19T18:21:59;100382.53;;;24.97;51.31
5814;BME280;2933;52.302;8.134;2022-08-19T18:27:01;100378.44;;;25.01;51.11
5814;BME280;2933;52.302;8.134;2022-08-19T18:32:03;100369.47;;;24.87;52.11
5814;BME280;2933;52.302;8.134;2022-08-19T18:37:06;100409.13;;;25.05;51.72
5814;BME280;2933;52.302;8.134;2022-08-19T18:42:12;100399.69;;;24.88;51.67
5814;BME280;2933;52.302;8.134;2022-08-19T18:47:32;100388.28;;;24.79;51.83
5814;BME280;2933;52.302;8.134;2022-08-19T18:52:52;100403.25;;;24.73;53.00
5814;BME280;2933;52.302;8.134;2022-08-19T18:57:54;100409.34;;;24.52;53.31
5814;BME280;2933;52.302;8.134;2022-08-19T19:02:56;100414.88;;;24.50;54.79
5814;BME280;2933;52.302;8.134;2022-08-19T19:07:59;100405.69;;;24.38;53.99
5814;BME280;2933;52.302;8.134;2022-08-19T19:13:00;100431.19;;;24.41;55.12
5814;BME280;2933;52.302;8.134;2022-08-19T19:18:02;100441.75;;;24.34;55.67
5814;BME280;2933;52.302;8.134;2022-08-19T19:23:05;100448.56;;;24.22;56.59
5814;BME280;2933;52.302;8.134;2022-08-19T19:28:07;100419.66;;;23.80;57.29
5814;BME280;2933;52.302;8.134;2022-08-19T19:33:09;100437.50;;;23.80;57.48
5814;BME280;2933;52.302;8.134;2022-08-19T19:38:13;100414.66;;;23.62;58.09
5814;BME280;2933;52.302;8.134;2022-08-19T19:43:15;100421.09;;;23.68;58.17
5814;BME280;2933;52.302;8.134;2022-08-19T19:48:17;100448.16;;;23.80;58.60
5814;BME280;2933;52.302;8.134;2022-08-19T19:53:20;100475.75;;;23.49;60.45
5814;BME280;2933;52.302;8.134;2022-08-19T19:58:23;100477.09;;;23.45;57.82
5814;BME280;2933;52.302;8.134;2022-08-19T20:03:26;100480.97;;;23.42;58.31
5814;BME280;2933;52.302;8.134;2022-08-19T20:08:29;100476.53;;;23.34;59.53
5814;BME280;2933;52.302;8.134;2022-08-19T20:13:48;100473.66;;;23.13;60.37
5814;BME280;2933;52.302;8.134;2022-08-19T20:18:50;100492.47;;;23.11;61.64
5814;BME280;2933;52.302;8.134;2022-08-19T20:23:53;100495.31;;;23.10;62.59
5814;BME280;2933;52.302;8.134;2022-08-19T20:28:55;100497.00;;;23.02;62.79
5814;BME280;2933;52.302;8.134;2022-08-19T20:34:02;100515.53;;;22.96;63.24
5814;BME280;2933;52.302;8.134;2022-08-19T20:39:06;100523.16;;;22.99;64.11
5814;BME280;2933;52.302;8.134;2022-08-19T20:44:07;100523.44;;;22.81;65.03
5814;BME280;2933;52.302;8.134;2022-08-19T20:49:09;100533.41;;;22.79;65.40
5814;BME280;2933;52.302;8.134;2022-08-19T20:54:12;100543.44;;;22.77;66.08
5814;BME280;2933;52.302;8.134;2022-08-19T20:59:14;100537.31;;;22.68;66.16
5814;BME280;2933;52.302;8.134;2022-08-19T21:04:15;100546.59;;;22.72;66.68
5814;BME280;2933;52.302;8.134;2022-08-19T21:09:18;100537.81;;;22.63;67.00
5814;BME280;2933;52.302;8.134;2022-08-19T21:14:20;100553.91;;;22.70;66.92
5814;BME280;2933;52.302;8.134;2022-08-19T21:19:22;100538.81;;;22.62;67.40
5814;BME280;2933;52.302;8.134;2022-08-19T21:24:25;100537.66;;;22.56;67.79
5814;BME280;2933;52.302;8.134;2022-08-19T21:29:26;100544.69;;;22.49;68.68
5814;BME280;2933;52.302;8.134;2022-08-19T21:34:31;100548.28;;;22.56;68.90
5814;BME280;2933;52.302;8.134;2022-08-19T21:39:34;100552.66;;;22.41;69.52
5814;BME280;2933;52.302;8.134;2022-08-19T21:44:35;100549.50;;;22.46;69.92
5814;BME280;2933;52.302;8.134;2022-08-19T21:49:37;100552.31;;;22.36;70.90
5814;BME280;2933;52.302;8.134;2022-08-19T21:54:41;100551.31;;;22.45;70.70
5814;BME280;2933;52.302;8.134;2022-08-19T21:59:42;100546.50;;;22.24;71.99
5814;BME280;2933;52.302;8.134;2022-08-19T22:04:44;100552.19;;;22.21;72.72
5814;BME280;2933;52.302;8.134;2022-08-19T22:09:49;100539.06;;;22.19;73.47
5814;BME280;2933;52.302;8.134;2022-08-19T22:14:51;100514.28;;;22.02;73.46
5814;BME280;2933;52.302;8.134;2022-08-19T22:19:53;100545.72;;;22.07;73.90
5814;BME280;2933;52.302;8.134;2022-08-19T22:25:06;100555.16;;;21.93;73.71
5814;BME280;2933;52.302;8.134;2022-08-19T22:30:16;100563.16;;;21.93;72.93
5814;BME280;2933;52.302;8.134;2022-08-19T22:35:20;100551.19;;;21.97;72.86
5814;BME280;2933;52.302;8.134;2022-08-19T22:40:24;100527.25;;;21.72;72.61
5814;BME280;2933;52.302;8.134;2022-08-19T22:45:26;100556.34;;;21.90;72.82
5814;BME280;2933;52.302;8.134;2022-08-19T22:50:28;100553.03;;;21.80;73.16
5814;BME280;2933;52.302;8.134;2022-08-19T22:55:33;100546.38;;;21.92;73.65
5814;BME280;2933;52.302;8.134;2022-08-19T23:00:35;100550.19;;;21.82;73.40
5814;BME280;2933;52.302;8.134;2022-08-19T23:05:36;100543.88;;;21.74;73.37
5814;BME280;2933;52.302;8.134;2022-08-19T23:10:39;100552.69;;;21.83;73.62
5814;BME280;2933;52.302;8.134;2022-08-19T23:15:41;100548.19;;;21.75;74.04
5814;BME280;2933;52.302;8.134;2022-08-19T23:20:43;100549.19;;;21.83;73.46
5814;BME280;2933;52.302;8.134;2022-08-19T23:25:47;100546.72;;;21.81;73.38
5814;BME280;2933;52.302;8.134;2022-08-19T23:30:50;100544.06;;;21.65;74.15
5814;BME280;2933;52.302;8.134;2022-08-19T23:35:54;100546.16;;;21.53;74.37
5814;BME280;2933;52.302;8.134;2022-08-19T23:41:00;100519.22;;;21.31;75.18
5814;BME280;2933;52.302;8.134;2022-08-19T23:46:03;100541.81;;;21.52;75.12
5814;BME280;2933;52.302;8.134;2022-08-19T23:51:07;100529.03;;;21.39;75.64
5814;BME280;2933;52.302;8.134;2022-08-19T23:56:11;100502.41;;;21.14;76.35
